Terminal Aerodrome Forecast
Issued by NWS Cleveland, OH

Home | Current Version | Previous Version | Graphics & Text | Print | Product List | Glossary On
Versions: 1 2 3 4 5 6 7 8 9 10 11 12 13 14 15 16 17 18 19 20 21 22 23 24 25 26 27 28
000
FTUS41 KCLE 221600 AAB
TAFERI
TAF AMD
KERI 221613Z 2216/2312 26008KT 3SM BR OVC006
     FM221900 30007KT P6SM OVC025
     FM222200 27007KT P6SM SCT025 OVC045
     FM230200 23005KT P6SM OVC025=

USA.gov is the U.S. government's official web portal to all federal, state and local government web resources and services.